sensor_id;sensor_type;location;lat;lon;timestamp;pressure;altitude;pressure_sealevel;temperature
21210;BMP180;10762;42.206;25.326;2024-01-25T00:01:19;99831.00;;;6.40
21210;BMP180;10762;42.206;25.326;2024-01-25T00:03:45;99825.00;;;6.40
21210;BMP180;10762;42.206;25.326;2024-01-25T00:06:12;99812.00;;;6.30
21210;BMP180;10762;42.206;25.326;2024-01-25T00:08:38;99808.00;;;6.40
21210;BMP180;10762;42.206;25.326;2024-01-25T00:11:04;99774.00;;;6.30
21210;BMP180;10762;42.206;25.326;2024-01-25T00:13:30;99766.00;;;6.30
21210;BMP180;10762;42.206;25.326;2024-01-25T00:15:56;99780.00;;;6.30
21210;BMP180;10762;42.206;25.326;2024-01-25T00:18:22;99776.00;;;6.30
21210;BMP180;10762;42.206;25.326;2024-01-25T00:20:48;99772.00;;;6.20
21210;BMP180;10762;42.206;25.326;2024-01-25T00:23:14;99765.00;;;6.20
21210;BMP180;10762;42.206;25.326;2024-01-25T00:25:40;99773.00;;;6.10
21210;BMP180;10762;42.206;25.326;2024-01-25T00:28:06;99783.00;;;6.10
21210;BMP180;10762;42.206;25.326;2024-01-25T00:30:32;99778.00;;;6.00
21210;BMP180;10762;42.206;25.326;2024-01-25T00:32:59;99773.00;;;6.00
21210;BMP180;10762;42.206;25.326;2024-01-25T00:35:25;99767.00;;;5.90
21210;BMP180;10762;42.206;25.326;2024-01-25T00:37:51;99778.00;;;5.90
21210;BMP180;10762;42.206;25.326;2024-01-25T00:40:17;99764.00;;;5.90
21210;BMP180;10762;42.206;25.326;2024-01-25T00:42:45;99762.00;;;5.90
21210;BMP180;10762;42.206;25.326;2024-01-25T00:45:15;99754.00;;;5.90
21210;BMP180;10762;42.206;25.326;2024-01-25T00:47:41;99749.00;;;5.80
21210;BMP180;10762;42.206;25.326;2024-01-25T00:50:07;99756.00;;;5.80
21210;BMP180;10762;42.206;25.326;2024-01-25T00:52:33;99763.00;;;5.80
21210;BMP180;10762;42.206;25.326;2024-01-25T00:55:01;99762.00;;;5.80
21210;BMP180;10762;42.206;25.326;2024-01-25T00:57:27;99766.00;;;5.80
21210;BMP180;10762;42.206;25.326;2024-01-25T00:59:54;99755.00;;;5.70
21210;BMP180;10762;42.206;25.326;2024-01-25T01:02:20;99761.00;;;5.70
21210;BMP180;10762;42.206;25.326;2024-01-25T01:04:47;99768.00;;;5.70
21210;BMP180;10762;42.206;25.326;2024-01-25T01:07:13;99761.00;;;5.70
21210;BMP180;10762;42.206;25.326;2024-01-25T01:09:40;99750.00;;;5.70
21210;BMP180;10762;42.206;25.326;2024-01-25T01:12:06;99713.00;;;5.70
21210;BMP180;10762;42.206;25.326;2024-01-25T01:14:32;99720.00;;;5.70
21210;BMP180;10762;42.206;25.326;2024-01-25T01:16:58;99732.00;;;5.70
21210;BMP180;10762;42.206;25.326;2024-01-25T01:19:24;99729.00;;;5.70
21210;BMP180;10762;42.206;25.326;2024-01-25T01:21:50;99726.00;;;5.70
21210;BMP180;10762;42.206;25.326;2024-01-25T01:24:16;99704.00;;;5.70
21210;BMP180;10762;42.206;25.326;2024-01-25T01:26:43;99720.00;;;5.70
21210;BMP180;10762;42.206;25.326;2024-01-25T01:29:09;99714.00;;;5.70
21210;BMP180;10762;42.206;25.326;2024-01-25T01:31:35;99709.00;;;5.70
21210;BMP180;10762;42.206;25.326;2024-01-25T01:34:01;99694.00;;;5.70
21210;BMP180;10762;42.206;25.326;2024-01-25T01:36:27;99685.00;;;5.80
21210;BMP180;10762;42.206;25.326;2024-01-25T01:38:54;99685.00;;;5.80
21210;BMP180;10762;42.206;25.326;2024-01-25T01:41:20;99686.00;;;5.80
21210;BMP180;10762;42.206;25.326;2024-01-25T01:43:47;99679.00;;;5.80
21210;BMP180;10762;42.206;25.326;2024-01-25T01:46:20;99682.00;;;5.80
21210;BMP180;10762;42.206;25.326;2024-01-25T01:48:48;99680.00;;;5.80
21210;BMP180;10762;42.206;25.326;2024-01-25T01:51:15;99679.00;;;5.90
21210;BMP180;10762;42.206;25.326;2024-01-25T01:53:45;99675.00;;;5.90
21210;BMP180;10762;42.206;25.326;2024-01-25T01:56:12;99662.00;;;5.90
21210;BMP180;10762;42.206;25.326;2024-01-25T01:58:38;99663.00;;;6.00
21210;BMP180;10762;42.206;25.326;2024-01-25T02:01:05;99667.00;;;6.00
21210;BMP180;10762;42.206;25.326;2024-01-25T02:03:31;99658.00;;;6.00
21210;BMP180;10762;42.206;25.326;2024-01-25T02:06:00;99656.00;;;6.00
21210;BMP180;10762;42.206;25.326;2024-01-25T02:08:28;99651.00;;;6.00
21210;BMP180;10762;42.206;25.326;2024-01-25T02:10:55;99654.00;;;6.00
21210;BMP180;10762;42.206;25.326;2024-01-25T02:13:21;99653.00;;;6.00
21210;BMP180;10762;42.206;25.326;2024-01-25T02:15:48;99645.00;;;6.00
21210;BMP180;10762;42.206;25.326;2024-01-25T02:18:18;99626.00;;;6.00
21210;BMP180;10762;42.206;25.326;2024-01-25T02:20:45;99609.00;;;6.00
21210;BMP180;10762;42.206;25.326;2024-01-25T02:23:12;99602.00;;;6.00
21210;BMP180;10762;42.206;25.326;2024-01-25T02:25:40;99600.00;;;6.10
21210;BMP180;10762;42.206;25.326;2024-01-25T02:28:06;99613.00;;;6.10
21210;BMP180;10762;42.206;25.326;2024-01-25T02:30:32;99597.00;;;6.10
21210;BMP180;10762;42.206;25.326;2024-01-25T02:32:59;99609.00;;;6.20
21210;BMP180;10762;42.206;25.326;2024-01-25T02:35:25;99601.00;;;6.20
21210;BMP180;10762;42.206;25.326;2024-01-25T02:37:53;99585.00;;;6.30
21210;BMP180;10762;42.206;25.326;2024-01-25T02:40:19;99585.00;;;6.30
21210;BMP180;10762;42.206;25.326;2024-01-25T02:42:48;99576.00;;;6.30
21210;BMP180;10762;42.206;25.326;2024-01-25T02:45:15;99590.00;;;6.30
21210;BMP180;10762;42.206;25.326;2024-01-25T02:47:41;99581.00;;;6.40
21210;BMP180;10762;42.206;25.326;2024-01-25T02:50:07;99579.00;;;6.30
21210;BMP180;10762;42.206;25.326;2024-01-25T02:52:33;99583.00;;;6.20
21210;BMP180;10762;42.206;25.326;2024-01-25T02:55:01;99582.00;;;6.20
21210;BMP180;10762;42.206;25.326;2024-01-25T02:57:28;99575.00;;;6.20
21210;BMP180;10762;42.206;25.326;2024-01-25T02:59:57;99569.00;;;6.30
21210;BMP180;10762;42.206;25.326;2024-01-25T03:02:23;99565.00;;;6.30
21210;BMP180;10762;42.206;25.326;2024-01-25T03:04:49;99575.00;;;6.40
21210;BMP180;10762;42.206;25.326;2024-01-25T03:07:16;99581.00;;;6.40
21210;BMP180;10762;42.206;25.326;2024-01-25T03:09:42;99577.00;;;6.40
21210;BMP180;10762;42.206;25.326;2024-01-25T03:12:09;99577.00;;;6.30
21210;BMP180;10762;42.206;25.326;2024-01-25T03:14:36;99563.00;;;6.30
21210;BMP180;10762;42.206;25.326;2024-01-25T03:17:02;99581.00;;;6.30
21210;BMP180;10762;42.206;25.326;2024-01-25T03:19:29;99579.00;;;6.30
21210;BMP180;10762;42.206;25.326;2024-01-25T03:21:55;99586.00;;;6.30
21210;BMP180;10762;42.206;25.326;2024-01-25T03:24:21;99563.00;;;6.20
21210;BMP180;10762;42.206;25.326;2024-01-25T03:26:48;99569.00;;;6.20
21210;BMP180;10762;42.206;25.326;2024-01-25T03:29:14;99555.00;;;6.10
21210;BMP180;10762;42.206;25.326;2024-01-25T03:31:42;99549.00;;;6.10
21210;BMP180;10762;42.206;25.326;2024-01-25T03:34:09;99548.00;;;6.10
21210;BMP180;10762;42.206;25.326;2024-01-25T03:36:37;99537.00;;;6.10
21210;BMP180;10762;42.206;25.326;2024-01-25T03:39:05;99531.00;;;6.10
21210;BMP180;10762;42.206;25.326;2024-01-25T03:41:33;99529.00;;;6.10
21210;BMP180;10762;42.206;25.326;2024-01-25T03:44:00;99535.00;;;6.10
21210;BMP180;10762;42.206;25.326;2024-01-25T03:46:29;99530.00;;;6.20
21210;BMP180;10762;42.206;25.326;2024-01-25T03:48:55;99530.00;;;6.20
21210;BMP180;10762;42.206;25.326;2024-01-25T03:51:22;99532.00;;;6.20
21210;BMP180;10762;42.206;25.326;2024-01-25T03:53:51;99541.00;;;6.20
21210;BMP180;10762;42.206;25.326;2024-01-25T03:56:19;99544.00;;;6.30
21210;BMP180;10762;42.206;25.326;2024-01-25T03:58:45;99543.00;;;6.40
21210;BMP180;10762;42.206;25.326;2024-01-25T04:01:12;99538.00;;;6.40
21210;BMP180;10762;42.206;25.326;2024-01-25T04:03:38;99568.00;;;6.50
21210;BMP180;10762;42.206;25.326;2024-01-25T04:06:07;99548.00;;;6.80
21210;BMP180;10762;42.206;25.326;2024-01-25T04:08:33;99530.00;;;7.00
21210;BMP180;10762;42.206;25.326;2024-01-25T04:11:03;99528.00;;;7.20
21210;BMP180;10762;42.206;25.326;2024-01-25T04:13:31;99533.00;;;7.30
21210;BMP180;10762;42.206;25.326;2024-01-25T04:16:01;99549.00;;;7.50
21210;BMP180;10762;42.206;25.326;2024-01-25T04:18:29;99546.00;;;7.40
21210;BMP180;10762;42.206;25.326;2024-01-25T04:20:56;99517.00;;;7.30
21210;BMP180;10762;42.206;25.326;2024-01-25T04:23:24;99534.00;;;7.20
21210;BMP180;10762;42.206;25.326;2024-01-25T04:25:50;99549.00;;;7.00
21210;BMP180;10762;42.206;25.326;2024-01-25T04:28:17;99556.00;;;6.90
21210;BMP180;10762;42.206;25.326;2024-01-25T04:30:43;99528.00;;;6.80
21210;BMP180;10762;42.206;25.326;2024-01-25T04:33:10;99542.00;;;6.80
21210;BMP180;10762;42.206;25.326;2024-01-25T04:35:41;99549.00;;;6.70
21210;BMP180;10762;42.206;25.326;2024-01-25T04:38:09;99555.00;;;6.70
21210;BMP180;10762;42.206;25.326;2024-01-25T04:40:35;99556.00;;;6.70
21210;BMP180;10762;42.206;25.326;2024-01-25T04:43:03;99568.00;;;6.90
21210;BMP180;10762;42.206;25.326;2024-01-25T04:45:31;99568.00;;;7.20
21210;BMP180;10762;42.206;25.326;2024-01-25T04:47:57;99551.00;;;7.50
21210;BMP180;10762;42.206;25.326;2024-01-25T04:50:24;99547.00;;;7.70
21210;BMP180;10762;42.206;25.326;2024-01-25T04:52:50;99532.00;;;8.00
21210;BMP180;10762;42.206;25.326;2024-01-25T04:55:18;99535.00;;;8.20
21210;BMP180;10762;42.206;25.326;2024-01-25T04:57:45;99506.00;;;8.30
21210;BMP180;10762;42.206;25.326;2024-01-25T05:00:13;99511.00;;;8.40
21210;BMP180;10762;42.206;25.326;2024-01-25T05:02:41;99520.00;;;8.40
21210;BMP180;10762;42.206;25.326;2024-01-25T05:05:08;99518.00;;;8.50
21210;BMP180;10762;42.206;25.326;2024-01-25T05:07:35;99523.00;;;8.50
21210;BMP180;10762;42.206;25.326;2024-01-25T05:10:02;99525.00;;;8.50
21210;BMP180;10762;42.206;25.326;2024-01-25T05:12:29;99529.00;;;8.40
21210;BMP180;10762;42.206;25.326;2024-01-25T05:14:58;99516.00;;;8.50
21210;BMP180;10762;42.206;25.326;2024-01-25T05:17:24;99508.00;;;8.60
21210;BMP180;10762;42.206;25.326;2024-01-25T05:19:51;99525.00;;;8.70
21210;BMP180;10762;42.206;25.326;2024-01-25T05:22:17;99516.00;;;8.80
21210;BMP180;10762;42.206;25.326;2024-01-25T05:24:48;99520.00;;;8.90
21210;BMP180;10762;42.206;25.326;2024-01-25T05:27:15;99512.00;;;8.90
21210;BMP180;10762;42.206;25.326;2024-01-25T05:29:41;99512.00;;;9.00
21210;BMP180;10762;42.206;25.326;2024-01-25T05:32:07;99516.00;;;9.00
21210;BMP180;10762;42.206;25.326;2024-01-25T05:34:33;99515.00;;;9.00
21210;BMP180;10762;42.206;25.326;2024-01-25T05:37:00;99496.00;;;9.00
21210;BMP180;10762;42.206;25.326;2024-01-25T05:39:26;99498.00;;;9.00
21210;BMP180;10762;42.206;25.326;2024-01-25T05:41:52;99503.00;;;8.90
21210;BMP180;10762;42.206;25.326;2024-01-25T05:44:18;99517.00;;;8.90
21210;BMP180;10762;42.206;25.326;2024-01-25T05:46:45;99494.00;;;9.00
21210;BMP180;10762;42.206;25.326;2024-01-25T05:49:12;99503.00;;;9.00
21210;BMP180;10762;42.206;25.326;2024-01-25T05:51:38;99488.00;;;9.10
21210;BMP180;10762;42.206;25.326;2024-01-25T05:54:05;99514.00;;;9.10
21210;BMP180;10762;42.206;25.326;2024-01-25T05:56:31;99500.00;;;9.10
21210;BMP180;10762;42.206;25.326;2024-01-25T05:58:59;99492.00;;;9.10
21210;BMP180;10762;42.206;25.326;2024-01-25T06:01:26;99507.00;;;9.20
21210;BMP180;10762;42.206;25.326;2024-01-25T06:03:53;99486.00;;;9.20
21210;BMP180;10762;42.206;25.326;2024-01-25T06:06:19;99497.00;;;9.20
21210;BMP180;10762;42.206;25.326;2024-01-25T06:08:46;99513.00;;;9.20
21210;BMP180;10762;42.206;25.326;2024-01-25T06:11:12;99523.00;;;9.20
21210;BMP180;10762;42.206;25.326;2024-01-25T06:13:39;99536.00;;;9.30
21210;BMP180;10762;42.206;25.326;2024-01-25T06:16:05;99528.00;;;9.40
21210;BMP180;10762;42.206;25.326;2024-01-25T06:18:31;99525.00;;;9.40
21210;BMP180;10762;42.206;25.326;2024-01-25T06:20:57;99532.00;;;9.50
21210;BMP180;10762;42.206;25.326;2024-01-25T06:23:24;99529.00;;;9.60
21210;BMP180;10762;42.206;25.326;2024-01-25T06:25:51;99530.00;;;9.80
21210;BMP180;10762;42.206;25.326;2024-01-25T06:28:17;99537.00;;;9.90
21210;BMP180;10762;42.206;25.326;2024-01-25T06:30:45;99542.00;;;10.00
21210;BMP180;10762;42.206;25.326;2024-01-25T06:33:11;99543.00;;;10.10
21210;BMP180;10762;42.206;25.326;2024-01-25T06:35:38;99553.00;;;10.10
21210;BMP180;10762;42.206;25.326;2024-01-25T06:38:05;99557.00;;;10.20
21210;BMP180;10762;42.206;25.326;2024-01-25T06:40:31;99565.00;;;10.30
21210;BMP180;10762;42.206;25.326;2024-01-25T06:42:57;99576.00;;;10.30
21210;BMP180;10762;42.206;25.326;2024-01-25T06:45:24;99573.00;;;10.40
21210;BMP180;10762;42.206;25.326;2024-01-25T06:47:50;99578.00;;;10.40
21210;BMP180;10762;42.206;25.326;2024-01-25T06:50:17;99577.00;;;10.50
21210;BMP180;10762;42.206;25.326;2024-01-25T06:52:43;99578.00;;;10.50
21210;BMP180;10762;42.206;25.326;2024-01-25T06:55:10;99567.00;;;10.60
21210;BMP180;10762;42.206;25.326;2024-01-25T06:57:38;99574.00;;;10.60
21210;BMP180;10762;42.206;25.326;2024-01-25T07:00:05;99564.00;;;10.80
21210;BMP180;10762;42.206;25.326;2024-01-25T07:02:32;99578.00;;;10.90
21210;BMP180;10762;42.206;25.326;2024-01-25T07:04:58;99572.00;;;11.00
21210;BMP180;10762;42.206;25.326;2024-01-25T07:07:29;99575.00;;;11.10
21210;BMP180;10762;42.206;25.326;2024-01-25T07:09:58;99555.00;;;11.10
21210;BMP180;10762;42.206;25.326;2024-01-25T07:12:25;99547.00;;;11.30
21210;BMP180;10762;42.206;25.326;2024-01-25T07:14:52;99538.00;;;11.50
21210;BMP180;10762;42.206;25.326;2024-01-25T07:17:19;99557.00;;;11.60
21210;BMP180;10762;42.206;25.326;2024-01-25T07:19:46;99555.00;;;11.80
21210;BMP180;10762;42.206;25.326;2024-01-25T07:22:13;99557.00;;;11.90
21210;BMP180;10762;42.206;25.326;2024-01-25T07:24:41;99546.00;;;12.00
21210;BMP180;10762;42.206;25.326;2024-01-25T07:27:12;99533.00;;;12.10
21210;BMP180;10762;42.206;25.326;2024-01-25T07:29:38;99526.00;;;12.30
21210;BMP180;10762;42.206;25.326;2024-01-25T07:32:05;99523.00;;;12.40
21210;BMP180;10762;42.206;25.326;2024-01-25T07:34:36;99518.00;;;12.60
21210;BMP180;10762;42.206;25.326;2024-01-25T07:37:04;99534.00;;;12.70
21210;BMP180;10762;42.206;25.326;2024-01-25T07:39:31;99514.00;;;12.80
21210;BMP180;10762;42.206;25.326;2024-01-25T07:41:58;99518.00;;;12.80
21210;BMP180;10762;42.206;25.326;2024-01-25T07:44:25;99520.00;;;12.90
21210;BMP180;10762;42.206;25.326;2024-01-25T07:46:52;99519.00;;;12.90
21210;BMP180;10762;42.206;25.326;2024-01-25T07:49:24;99528.00;;;13.00
21210;BMP180;10762;42.206;25.326;2024-01-25T07:51:52;99543.00;;;13.20
21210;BMP180;10762;42.206;25.326;2024-01-25T07:54:20;99544.00;;;13.30
21210;BMP180;10762;42.206;25.326;2024-01-25T07:56:52;99550.00;;;13.40
21210;BMP180;10762;42.206;25.326;2024-01-25T07:59:20;99550.00;;;13.60
21210;BMP180;10762;42.206;25.326;2024-01-25T08:01:49;99557.00;;;13.70
21210;BMP180;10762;42.206;25.326;2024-01-25T08:04:21;99544.00;;;13.90
21210;BMP180;10762;42.206;25.326;2024-01-25T08:06:51;99485.00;;;14.00
21210;BMP180;10762;42.206;25.326;2024-01-25T08:09:19;99563.00;;;14.10
21210;BMP180;10762;42.206;25.326;2024-01-25T08:11:51;99555.00;;;14.20
21210;BMP180;10762;42.206;25.326;2024-01-25T08:14:21;99569.00;;;14.20
21210;BMP180;10762;42.206;25.326;2024-01-25T08:16:52;99567.00;;;14.30
21210;BMP180;10762;42.206;25.326;2024-01-25T08:19:21;99574.00;;;14.40
21210;BMP180;10762;42.206;25.326;2024-01-25T08:21:48;99572.00;;;14.40
21210;BMP180;10762;42.206;25.326;2024-01-25T08:24:17;99571.00;;;14.40
21210;BMP180;10762;42.206;25.326;2024-01-25T08:26:45;99572.00;;;14.50
21210;BMP180;10762;42.206;25.326;2024-01-25T08:29:12;99570.00;;;14.60
21210;BMP180;10762;42.206;25.326;2024-01-25T08:31:40;99585.00;;;14.70
21210;BMP180;10762;42.206;25.326;2024-01-25T08:34:07;99566.00;;;14.70
21210;BMP180;10762;42.206;25.326;2024-01-25T08:36:36;99563.00;;;14.80
21210;BMP180;10762;42.206;25.326;2024-01-25T08:39:04;99566.00;;;14.90
21210;BMP180;10762;42.206;25.326;2024-01-25T08:41:34;99546.00;;;14.90
21210;BMP180;10762;42.206;25.326;2024-01-25T08:44:01;99565.00;;;14.70
21210;BMP180;10762;42.206;25.326;2024-01-25T08:46:27;99555.00;;;15.10
21210;BMP180;10762;42.206;25.326;2024-01-25T08:48:53;99550.00;;;15.20
21210;BMP180;10762;42.206;25.326;2024-01-25T08:51:22;99560.00;;;15.30
21210;BMP180;10762;42.206;25.326;2024-01-25T08:53:49;99562.00;;;15.30
21210;BMP180;10762;42.206;25.326;2024-01-25T08:56:17;99547.00;;;15.40
21210;BMP180;10762;42.206;25.326;2024-01-25T08:58:45;99547.00;;;15.40
21210;BMP180;10762;42.206;25.326;2024-01-25T09:01:13;99546.00;;;15.50
21210;BMP180;10762;42.206;25.326;2024-01-25T09:03:42;99555.00;;;15.50
21210;BMP180;10762;42.206;25.326;2024-01-25T09:06:10;99562.00;;;15.60
21210;BMP180;10762;42.206;25.326;2024-01-25T09:08:38;99548.00;;;15.70
21210;BMP180;10762;42.206;25.326;2024-01-25T09:11:10;99536.00;;;15.70
21210;BMP180;10762;42.206;25.326;2024-01-25T09:13:39;99537.00;;;15.80
21210;BMP180;10762;42.206;25.326;2024-01-25T09:16:15;99540.00;;;15.80
21210;BMP180;10762;42.206;25.326;2024-01-25T09:18:43;99526.00;;;15.80
21210;BMP180;10762;42.206;25.326;2024-01-25T09:21:10;99540.00;;;15.80
21210;BMP180;10762;42.206;25.326;2024-01-25T09:23:38;99527.00;;;15.90
21210;BMP180;10762;42.206;25.326;2024-01-25T09:26:10;99536.00;;;16.00
21210;BMP180;10762;42.206;25.326;2024-01-25T09:28:38;99529.00;;;16.00
21210;BMP180;10762;42.206;25.326;2024-01-25T09:31:06;99541.00;;;16.00
21210;BMP180;10762;42.206;25.326;2024-01-25T09:33:34;99550.00;;;16.10
21210;BMP180;10762;42.206;25.326;2024-01-25T09:36:06;99565.00;;;16.10
21210;BMP180;10762;42.206;25.326;2024-01-25T09:38:35;99542.00;;;16.10
21210;BMP180;10762;42.206;25.326;2024-01-25T09:41:02;99522.00;;;16.20
21210;BMP180;10762;42.206;25.326;2024-01-25T09:43:29;99521.00;;;16.20
21210;BMP180;10762;42.206;25.326;2024-01-25T09:45:58;99511.00;;;16.30
21210;BMP180;10762;42.206;25.326;2024-01-25T09:48:30;99533.00;;;16.30
21210;BMP180;10762;42.206;25.326;2024-01-25T09:51:03;99518.00;;;16.30
21210;BMP180;10762;42.206;25.326;2024-01-25T09:53:31;99528.00;;;16.30
21210;BMP180;10762;42.206;25.326;2024-01-25T09:56:05;99526.00;;;16.40
21210;BMP180;10762;42.206;25.326;2024-01-25T09:58:38;99537.00;;;16.40
21210;BMP180;10762;42.206;25.326;2024-01-25T10:01:07;99554.00;;;16.40
21210;BMP180;10762;42.206;25.326;2024-01-25T10:03:47;99541.00;;;16.50
21210;BMP180;10762;42.206;25.326;2024-01-25T10:06:15;99553.00;;;16.50
21210;BMP180;10762;42.206;25.326;2024-01-25T10:08:42;99563.00;;;16.60
21210;BMP180;10762;42.206;25.326;2024-01-25T10:11:13;99550.00;;;16.60
21210;BMP180;10762;42.206;25.326;2024-01-25T10:13:44;99552.00;;;16.60
21210;BMP180;10762;42.206;25.326;2024-01-25T10:16:13;99557.00;;;16.50
21210;BMP180;10762;42.206;25.326;2024-01-25T10:18:54;99555.00;;;16.60
21210;BMP180;10762;42.206;25.326;2024-01-25T10:21:22;99544.00;;;16.50
21210;BMP180;10762;42.206;25.326;2024-01-25T10:23:49;99560.00;;;16.50
21210;BMP180;10762;42.206;25.326;2024-01-25T10:26:18;99569.00;;;16.50
21210;BMP180;10762;42.206;25.326;2024-01-25T10:28:51;99585.00;;;16.60
21210;BMP180;10762;42.206;25.326;2024-01-25T10:31:18;99555.00;;;16.60
21210;BMP180;10762;42.206;25.326;2024-01-25T10:33:45;99561.00;;;16.60
21210;BMP180;10762;42.206;25.326;2024-01-25T10:36:13;99564.00;;;16.60
21210;BMP180;10762;42.206;25.326;2024-01-25T10:38:40;99564.00;;;16.60
21210;BMP180;10762;42.206;25.326;2024-01-25T10:41:10;99550.00;;;16.60
21210;BMP180;10762;42.206;25.326;2024-01-25T10:43:39;99551.00;;;16.60
21210;BMP180;10762;42.206;25.326;2024-01-25T10:46:07;99543.00;;;16.50
21210;BMP180;10762;42.206;25.326;2024-01-25T10:48:34;99536.00;;;16.50
21210;BMP180;10762;42.206;25.326;2024-01-25T10:51:01;99520.00;;;16.40
21210;BMP180;10762;42.206;25.326;2024-01-25T10:53:32;99531.00;;;16.30
21210;BMP180;10762;42.206;25.326;2024-01-25T10:55:59;99524.00;;;16.20
21210;BMP180;10762;42.206;25.326;2024-01-25T10:58:29;99527.00;;;16.10
21210;BMP180;10762;42.206;25.326;2024-01-25T11:00:56;99523.00;;;16.10
21210;BMP180;10762;42.206;25.326;2024-01-25T11:03:28;99521.00;;;16.10
21210;BMP180;10762;42.206;25.326;2024-01-25T11:05:55;99512.00;;;16.10
21210;BMP180;10762;42.206;25.326;2024-01-25T11:08:23;99497.00;;;16.30
21210;BMP180;10762;42.206;25.326;2024-01-25T11:10:50;99499.00;;;16.40
21210;BMP180;10762;42.206;25.326;2024-01-25T11:13:23;99512.00;;;16.40
21210;BMP180;10762;42.206;25.326;2024-01-25T11:15:50;99491.00;;;16.50
21210;BMP180;10762;42.206;25.326;2024-01-25T11:18:18;99501.00;;;16.60
21210;BMP180;10762;42.206;25.326;2024-01-25T11:38:50;99482.00;;;17.10
21210;BMP180;10762;42.206;25.326;2024-01-25T11:41:16;99479.00;;;17.00
21210;BMP180;10762;42.206;25.326;2024-01-25T11:43:42;99477.00;;;17.00
21210;BMP180;10762;42.206;25.326;2024-01-25T11:46:08;99473.00;;;16.90
21210;BMP180;10762;42.206;25.326;2024-01-25T11:48:38;99494.00;;;16.70
21210;BMP180;10762;42.206;25.326;2024-01-25T11:51:04;99509.00;;;16.70
21210;BMP180;10762;42.206;25.326;2024-01-25T11:53:30;99496.00;;;16.70
21210;BMP180;10762;42.206;25.326;2024-01-25T11:55:56;99492.00;;;16.60
21210;BMP180;10762;42.206;25.326;2024-01-25T11:58:23;99497.00;;;16.60
21210;BMP180;10762;42.206;25.326;2024-01-25T12:00:49;99484.00;;;16.50
21210;BMP180;10762;42.206;25.326;2024-01-25T12:03:15;99502.00;;;16.50
21210;BMP180;10762;42.206;25.326;2024-01-25T12:05:42;99492.00;;;16.60
21210;BMP180;10762;42.206;25.326;2024-01-25T12:08:09;99470.00;;;16.70
21210;BMP180;10762;42.206;25.326;2024-01-25T12:10:35;99478.00;;;16.90
21210;BMP180;10762;42.206;25.326;2024-01-25T12:13:01;99473.00;;;17.10
21210;BMP180;10762;42.206;25.326;2024-01-25T12:15:27;99487.00;;;17.20
21210;BMP180;10762;42.206;25.326;2024-01-25T12:17:53;99479.00;;;17.20
21210;BMP180;10762;42.206;25.326;2024-01-25T12:20:19;99489.00;;;17.30
21210;BMP180;10762;42.206;25.326;2024-01-25T12:22:48;99495.00;;;17.40
21210;BMP180;10762;42.206;25.326;2024-01-25T12:25:14;99478.00;;;17.40
21210;BMP180;10762;42.206;25.326;2024-01-25T12:27:40;99475.00;;;17.50
21210;BMP180;10762;42.206;25.326;2024-01-25T12:30:12;99466.00;;;17.50
21210;BMP180;10762;42.206;25.326;2024-01-25T12:32:38;99476.00;;;17.50
21210;BMP180;10762;42.206;25.326;2024-01-25T12:35:05;99463.00;;;17.50
21210;BMP180;10762;42.206;25.326;2024-01-25T12:37:31;99472.00;;;17.40
21210;BMP180;10762;42.206;25.326;2024-01-25T12:39:57;99473.00;;;17.40
21210;BMP180;10762;42.206;25.326;2024-01-25T12:42:23;99479.00;;;17.30
21210;BMP180;10762;42.206;25.326;2024-01-25T12:44:51;99488.00;;;17.20
21210;BMP180;10762;42.206;25.326;2024-01-25T12:47:17;99495.00;;;17.10
21210;BMP180;10762;42.206;25.326;2024-01-25T12:49:44;99494.00;;;17.00
21210;BMP180;10762;42.206;25.326;2024-01-25T12:52:10;99490.00;;;16.90
21210;BMP180;10762;42.206;25.326;2024-01-25T12:54:36;99493.00;;;16.80
21210;BMP180;10762;42.206;25.326;2024-01-25T12:57:03;99499.00;;;16.70
21210;BMP180;10762;42.206;25.326;2024-01-25T12:59:30;99479.00;;;16.60
21210;BMP180;10762;42.206;25.326;2024-01-25T13:01:56;99481.00;;;16.60
21210;BMP180;10762;42.206;25.326;2024-01-25T13:04:22;99483.00;;;16.60
21210;BMP180;10762;42.206;25.326;2024-01-25T13:06:49;99487.00;;;16.60
21210;BMP180;10762;42.206;25.326;2024-01-25T13:09:15;99480.00;;;16.50
21210;BMP180;10762;42.206;25.326;2024-01-25T13:11:41;99487.00;;;16.50
21210;BMP180;10762;42.206;25.326;2024-01-25T13:14:07;99486.00;;;16.40
21210;BMP180;10762;42.206;25.326;2024-01-25T13:16:33;99491.00;;;16.40
21210;BMP180;10762;42.206;25.326;2024-01-25T13:18:59;99497.00;;;16.40
21210;BMP180;10762;42.206;25.326;2024-01-25T13:21:26;99499.00;;;16.40
21210;BMP180;10762;42.206;25.326;2024-01-25T13:23:52;99502.00;;;16.40
21210;BMP180;10762;42.206;25.326;2024-01-25T13:26:18;99508.00;;;16.30
21210;BMP180;10762;42.206;25.326;2024-01-25T13:28:44;99502.00;;;16.30
21210;BMP180;10762;42.206;25.326;2024-01-25T13:31:11;99496.00;;;16.30
21210;BMP180;10762;42.206;25.326;2024-01-25T13:33:37;99480.00;;;16.20
21210;BMP180;10762;42.206;25.326;2024-01-25T13:36:03;99470.00;;;16.20
21210;BMP180;10762;42.206;25.326;2024-01-25T13:38:34;99463.00;;;16.20
21210;BMP180;10762;42.206;25.326;2024-01-25T13:41:00;99458.00;;;16.10
21210;BMP180;10762;42.206;25.326;2024-01-25T13:43:26;99456.00;;;16.00
21210;BMP180;10762;42.206;25.326;2024-01-25T13:45:54;99458.00;;;16.00
21210;BMP180;10762;42.206;25.326;2024-01-25T13:48:20;99455.00;;;16.00
21210;BMP180;10762;42.206;25.326;2024-01-25T13:50:46;99452.00;;;16.00
21210;BMP180;10762;42.206;25.326;2024-01-25T13:53:12;99448.00;;;15.90
21210;BMP180;10762;42.206;25.326;2024-01-25T13:55:38;99444.00;;;15.90
21210;BMP180;10762;42.206;25.326;2024-01-25T13:58:04;99446.00;;;15.90
21210;BMP180;10762;42.206;25.326;2024-01-25T14:00:30;99450.00;;;15.90
21210;BMP180;10762;42.206;25.326;2024-01-25T14:02:56;99453.00;;;15.80
21210;BMP180;10762;42.206;25.326;2024-01-25T14:05:22;99451.00;;;15.80
21210;BMP180;10762;42.206;25.326;2024-01-25T14:07:48;99457.00;;;15.80
21210;BMP180;10762;42.206;25.326;2024-01-25T14:10:15;99466.00;;;15.70
21210;BMP180;10762;42.206;25.326;2024-01-25T14:12:41;99457.00;;;15.70
21210;BMP180;10762;42.206;25.326;2024-01-25T14:15:07;99460.00;;;15.60
21210;BMP180;10762;42.206;25.326;2024-01-25T14:17:33;99467.00;;;15.60
21210;BMP180;10762;42.206;25.326;2024-01-25T14:20:02;99470.00;;;15.50